sensor_id;sensor_type;location;lat;lon;timestamp;P1;durP1;ratioP1;P2;durP2;ratioP2
12774;SDS011;6451;42.630;23.382;2022-09-09T00:01:59;11.50;;;10.35;;
12774;SDS011;6451;42.630;23.382;2022-09-09T00:04:30;11.55;;;10.35;;
12774;SDS011;6451;42.630;23.382;2022-09-09T00:07:02;10.52;;;9.52;;
12774;SDS011;6451;42.630;23.382;2022-09-09T00:09:35;12.48;;;9.63;;
12774;SDS011;6451;42.630;23.382;2022-09-09T00:12:09;12.07;;;9.45;;
12774;SDS011;6451;42.630;23.382;2022-09-09T00:14:41;9.27;;;8.40;;
12774;SDS011;6451;42.630;23.382;2022-09-09T00:17:17;9.90;;;8.80;;
12774;SDS011;6451;42.630;23.382;2022-09-09T00:19:52;12.02;;;8.30;;
12774;SDS011;6451;42.630;23.382;2022-09-09T00:22:23;10.88;;;8.05;;
12774;SDS011;6451;42.630;23.382;2022-09-09T00:24:54;10.27;;;8.43;;
12774;SDS011;6451;42.630;23.382;2022-09-09T00:27:25;9.40;;;8.40;;
12774;SDS011;6451;42.630;23.382;2022-09-09T00:29:58;9.20;;;8.07;;
12774;SDS011;6451;42.630;23.382;2022-09-09T00:32:42;9.20;;;8.25;;
12774;SDS011;6451;42.630;23.382;2022-09-09T00:35:14;9.10;;;8.23;;
12774;SDS011;6451;42.630;23.382;2022-09-09T00:37:45;9.13;;;8.27;;
12774;SDS011;6451;42.630;23.382;2022-09-09T00:40:16;8.90;;;8.10;;
12774;SDS011;6451;42.630;23.382;2022-09-09T00:42:52;10.23;;;9.00;;
12774;SDS011;6451;42.630;23.382;2022-09-09T00:45:39;9.55;;;8.65;;
12774;SDS011;6451;42.630;23.382;2022-09-09T00:48:19;9.95;;;8.77;;
12774;SDS011;6451;42.630;23.382;2022-09-09T00:50:49;9.50;;;8.70;;
12774;SDS011;6451;42.630;23.382;2022-09-09T00:53:27;10.32;;;9.25;;
12774;SDS011;6451;42.630;23.382;2022-09-09T00:56:06;9.50;;;8.70;;
12774;SDS011;6451;42.630;23.382;2022-09-09T00:58:39;9.60;;;8.68;;
12774;SDS011;6451;42.630;23.382;2022-09-09T01:01:09;10.38;;;9.07;;
12774;SDS011;6451;42.630;23.382;2022-09-09T01:03:40;10.02;;;9.02;;
12774;SDS011;6451;42.630;23.382;2022-09-09T01:06:14;10.15;;;9.32;;
12774;SDS011;6451;42.630;23.382;2022-09-09T01:08:48;10.55;;;9.50;;
12774;SDS011;6451;42.630;23.382;2022-09-09T01:11:25;10.70;;;9.65;;
12774;SDS011;6451;42.630;23.382;2022-09-09T01:13:55;10.55;;;9.50;;
12774;SDS011;6451;42.630;23.382;2022-09-09T01:16:28;11.00;;;9.82;;
12774;SDS011;6451;42.630;23.382;2022-09-09T01:18:58;10.45;;;9.55;;
12774;SDS011;6451;42.630;23.382;2022-09-09T01:21:29;11.30;;;9.68;;
12774;SDS011;6451;42.630;23.382;2022-09-09T01:24:14;11.10;;;9.90;;
12774;SDS011;6451;42.630;23.382;2022-09-09T01:26:51;11.52;;;10.32;;
12774;SDS011;6451;42.630;23.382;2022-09-09T01:29:21;10.57;;;9.57;;
12774;SDS011;6451;42.630;23.382;2022-09-09T01:31:53;10.38;;;9.38;;
12774;SDS011;6451;42.630;23.382;2022-09-09T01:34:21;11.27;;;9.55;;
12774;SDS011;6451;42.630;23.382;2022-09-09T01:36:51;11.20;;;10.00;;
12774;SDS011;6451;42.630;23.382;2022-09-09T01:39:23;9.85;;;8.95;;
12774;SDS011;6451;42.630;23.382;2022-09-09T01:41:52;11.50;;;8.63;;
12774;SDS011;6451;42.630;23.382;2022-09-09T01:44:21;9.25;;;8.30;;
12774;SDS011;6451;42.630;23.382;2022-09-09T01:46:48;9.93;;;8.55;;
12774;SDS011;6451;42.630;23.382;2022-09-09T01:49:15;9.70;;;8.73;;
12774;SDS011;6451;42.630;23.382;2022-09-09T01:51:43;9.63;;;8.73;;
12774;SDS011;6451;42.630;23.382;2022-09-09T01:54:15;9.30;;;8.40;;
12774;SDS011;6451;42.630;23.382;2022-09-09T01:56:43;9.70;;;8.68;;
12774;SDS011;6451;42.630;23.382;2022-09-09T01:59:27;10.95;;;7.93;;
12774;SDS011;6451;42.630;23.382;2022-09-09T02:02:17;10.15;;;7.93;;
12774;SDS011;6451;42.630;23.382;2022-09-09T02:04:49;9.15;;;8.25;;
12774;SDS011;6451;42.630;23.382;2022-09-09T02:07:21;10.57;;;8.48;;
12774;SDS011;6451;42.630;23.382;2022-09-09T02:10:05;13.25;;;9.18;;
12774;SDS011;6451;42.630;23.382;2022-09-09T02:12:38;9.73;;;8.85;;
12774;SDS011;6451;42.630;23.382;2022-09-09T02:15:11;10.05;;;8.77;;
12774;SDS011;6451;42.630;23.382;2022-09-09T02:17:46;9.63;;;8.75;;
12774;SDS011;6451;42.630;23.382;2022-09-09T02:20:18;9.75;;;8.85;;
12774;SDS011;6451;42.630;23.382;2022-09-09T02:22:48;9.95;;;9.05;;
12774;SDS011;6451;42.630;23.382;2022-09-09T02:25:18;9.75;;;8.75;;
12774;SDS011;6451;42.630;23.382;2022-09-09T02:27:47;10.20;;;9.00;;
12774;SDS011;6451;42.630;23.382;2022-09-09T02:30:18;9.93;;;8.98;;
12774;SDS011;6451;42.630;23.382;2022-09-09T02:32:46;9.68;;;8.60;;
12774;SDS011;6451;42.630;23.382;2022-09-09T02:35:17;10.00;;;8.88;;
12774;SDS011;6451;42.630;23.382;2022-09-09T02:37:49;9.43;;;8.60;;
12774;SDS011;6451;42.630;23.382;2022-09-09T02:40:19;10.77;;;8.95;;
12774;SDS011;6451;42.630;23.382;2022-09-09T02:42:48;10.10;;;8.52;;
12774;SDS011;6451;42.630;23.382;2022-09-09T02:45:16;11.60;;;8.85;;
12774;SDS011;6451;42.630;23.382;2022-09-09T02:47:53;9.82;;;8.52;;
12774;SDS011;6451;42.630;23.382;2022-09-09T02:50:29;10.32;;;9.23;;
12774;SDS011;6451;42.630;23.382;2022-09-09T02:53:04;10.00;;;9.02;;
12774;SDS011;6451;42.630;23.382;2022-09-09T02:55:38;10.07;;;9.07;;
12774;SDS011;6451;42.630;23.382;2022-09-09T02:58:08;11.35;;;9.00;;
12774;SDS011;6451;42.630;23.382;2022-09-09T03:00:40;10.18;;;9.18;;
12774;SDS011;6451;42.630;23.382;2022-09-09T03:03:07;10.68;;;9.68;;
12774;SDS011;6451;42.630;23.382;2022-09-09T03:05:35;10.85;;;9.85;;
12774;SDS011;6451;42.630;23.382;2022-09-09T03:08:02;11.68;;;10.23;;
12774;SDS011;6451;42.630;23.382;2022-09-09T03:10:30;12.95;;;10.63;;
12774;SDS011;6451;42.630;23.382;2022-09-09T03:12:58;13.63;;;11.75;;
12774;SDS011;6451;42.630;23.382;2022-09-09T03:15:26;12.25;;;11.02;;
12774;SDS011;6451;42.630;23.382;2022-09-09T03:17:57;15.07;;;12.18;;
12774;SDS011;6451;42.630;23.382;2022-09-09T03:20:26;14.35;;;12.40;;
12774;SDS011;6451;42.630;23.382;2022-09-09T03:22:56;13.52;;;12.15;;
12774;SDS011;6451;42.630;23.382;2022-09-09T03:25:23;13.02;;;11.75;;
12774;SDS011;6451;42.630;23.382;2022-09-09T03:27:50;13.48;;;12.20;;
12774;SDS011;6451;42.630;23.382;2022-09-09T03:30:20;13.93;;;12.35;;
12774;SDS011;6451;42.630;23.382;2022-09-09T03:32:47;14.35;;;12.80;;
12774;SDS011;6451;42.630;23.382;2022-09-09T03:35:15;15.70;;;12.18;;
12774;SDS011;6451;42.630;23.382;2022-09-09T03:37:42;13.63;;;12.32;;
12774;SDS011;6451;42.630;23.382;2022-09-09T03:40:11;13.07;;;11.80;;
12774;SDS011;6451;42.630;23.382;2022-09-09T03:42:39;13.95;;;12.52;;
12774;SDS011;6451;42.630;23.382;2022-09-09T03:45:07;15.70;;;12.40;;
12774;SDS011;6451;42.630;23.382;2022-09-09T03:47:35;16.08;;;12.60;;
12774;SDS011;6451;42.630;23.382;2022-09-09T03:50:04;13.30;;;12.00;;
12774;SDS011;6451;42.630;23.382;2022-09-09T03:52:35;17.00;;;12.50;;
12774;SDS011;6451;42.630;23.382;2022-09-09T03:55:02;13.48;;;12.18;;
12774;SDS011;6451;42.630;23.382;2022-09-09T03:57:31;14.02;;;12.45;;
12774;SDS011;6451;42.630;23.382;2022-09-09T04:00:00;15.35;;;12.63;;
12774;SDS011;6451;42.630;23.382;2022-09-09T04:02:28;12.50;;;11.30;;
12774;SDS011;6451;42.630;23.382;2022-09-09T04:04:54;12.93;;;11.52;;
12774;SDS011;6451;42.630;23.382;2022-09-09T04:07:21;15.82;;;11.55;;
12774;SDS011;6451;42.630;23.382;2022-09-09T04:09:51;13.70;;;12.32;;
12774;SDS011;6451;42.630;23.382;2022-09-09T04:12:19;12.02;;;10.90;;
12774;SDS011;6451;42.630;23.382;2022-09-09T04:14:47;12.63;;;10.75;;
12774;SDS011;6451;42.630;23.382;2022-09-09T04:17:14;12.45;;;11.18;;
12774;SDS011;6451;42.630;23.382;2022-09-09T04:19:41;11.95;;;10.35;;
12774;SDS011;6451;42.630;23.382;2022-09-09T04:22:08;11.38;;;10.27;;
12774;SDS011;6451;42.630;23.382;2022-09-09T04:24:35;11.05;;;10.05;;
12774;SDS011;6451;42.630;23.382;2022-09-09T04:27:04;11.23;;;10.10;;
12774;SDS011;6451;42.630;23.382;2022-09-09T04:29:31;11.13;;;9.85;;
12774;SDS011;6451;42.630;23.382;2022-09-09T04:31:58;11.23;;;9.90;;
12774;SDS011;6451;42.630;23.382;2022-09-09T04:34:25;10.73;;;9.15;;
12774;SDS011;6451;42.630;23.382;2022-09-09T04:36:52;10.07;;;8.68;;
12774;SDS011;6451;42.630;23.382;2022-09-09T04:39:18;12.45;;;8.75;;
12774;SDS011;6451;42.630;23.382;2022-09-09T04:41:46;8.93;;;8.00;;
12774;SDS011;6451;42.630;23.382;2022-09-09T04:44:16;11.07;;;8.60;;
12774;SDS011;6451;42.630;23.382;2022-09-09T04:46:43;18.23;;;8.88;;
12774;SDS011;6451;42.630;23.382;2022-09-09T04:49:10;10.27;;;8.38;;
12774;SDS011;6451;42.630;23.382;2022-09-09T04:51:37;9.25;;;8.40;;
12774;SDS011;6451;42.630;23.382;2022-09-09T04:54:04;13.60;;;9.40;;
12774;SDS011;6451;42.630;23.382;2022-09-09T04:56:31;12.23;;;8.95;;
12774;SDS011;6451;42.630;23.382;2022-09-09T04:58:58;9.57;;;8.68;;
12774;SDS011;6451;42.630;23.382;2022-09-09T05:01:26;10.77;;;9.05;;
12774;SDS011;6451;42.630;23.382;2022-09-09T05:03:54;9.20;;;8.35;;
12774;SDS011;6451;42.630;23.382;2022-09-09T05:06:21;12.90;;;8.95;;
12774;SDS011;6451;42.630;23.382;2022-09-09T05:08:55;14.48;;;8.73;;
12774;SDS011;6451;42.630;23.382;2022-09-09T05:11:23;9.27;;;8.38;;
12774;SDS011;6451;42.630;23.382;2022-09-09T05:13:52;9.05;;;8.05;;
12774;SDS011;6451;42.630;23.382;2022-09-09T05:16:20;10.48;;;8.18;;
12774;SDS011;6451;42.630;23.382;2022-09-09T05:18:49;13.35;;;8.82;;
12774;SDS011;6451;42.630;23.382;2022-09-09T05:21:17;9.38;;;8.40;;
12774;SDS011;6451;42.630;23.382;2022-09-09T05:23:45;9.32;;;8.10;;
12774;SDS011;6451;42.630;23.382;2022-09-09T05:26:14;11.38;;;8.10;;
12774;SDS011;6451;42.630;23.382;2022-09-09T05:28:42;10.23;;;7.38;;
12774;SDS011;6451;42.630;23.382;2022-09-09T05:31:09;7.82;;;7.10;;
12774;SDS011;6451;42.630;23.382;2022-09-09T05:33:37;9.35;;;7.60;;
12774;SDS011;6451;42.630;23.382;2022-09-09T05:36:07;11.38;;;7.50;;
12774;SDS011;6451;42.630;23.382;2022-09-09T05:38:36;8.13;;;7.07;;
12774;SDS011;6451;42.630;23.382;2022-09-09T05:41:04;9.15;;;7.30;;
12774;SDS011;6451;42.630;23.382;2022-09-09T05:43:31;7.65;;;6.75;;
12774;SDS011;6451;42.630;23.382;2022-09-09T05:46:02;8.93;;;6.68;;
12774;SDS011;6451;42.630;23.382;2022-09-09T05:48:30;12.05;;;6.70;;
12774;SDS011;6451;42.630;23.382;2022-09-09T05:50:59;7.03;;;6.40;;
12774;SDS011;6451;42.630;23.382;2022-09-09T05:53:29;9.63;;;6.07;;
12774;SDS011;6451;42.630;23.382;2022-09-09T05:55:59;8.15;;;6.07;;
12774;SDS011;6451;42.630;23.382;2022-09-09T05:58:28;6.25;;;5.68;;
12774;SDS011;6451;42.630;23.382;2022-09-09T06:01:02;8.23;;;6.20;;
12774;SDS011;6451;42.630;23.382;2022-09-09T06:03:32;6.53;;;5.65;;
12774;SDS011;6451;42.630;23.382;2022-09-09T06:05:59;6.93;;;5.93;;
12774;SDS011;6451;42.630;23.382;2022-09-09T06:08:28;8.38;;;5.50;;
12774;SDS011;6451;42.630;23.382;2022-09-09T06:11:00;6.72;;;6.03;;
12774;SDS011;6451;42.630;23.382;2022-09-09T06:13:29;6.75;;;5.32;;
12774;SDS011;6451;42.630;23.382;2022-09-09T06:15:56;6.32;;;5.70;;
12774;SDS011;6451;42.630;23.382;2022-09-09T06:18:24;6.28;;;5.68;;
12774;SDS011;6451;42.630;23.382;2022-09-09T06:20:58;7.78;;;5.95;;
12774;SDS011;6451;42.630;23.382;2022-09-09T06:23:30;12.25;;;5.93;;
12774;SDS011;6451;42.630;23.382;2022-09-09T06:26:01;10.40;;;5.65;;
12774;SDS011;6451;42.630;23.382;2022-09-09T06:28:32;6.20;;;5.68;;
12774;SDS011;6451;42.630;23.382;2022-09-09T06:30:59;7.07;;;5.90;;
12774;SDS011;6451;42.630;23.382;2022-09-09T06:33:26;9.23;;;5.47;;
12774;SDS011;6451;42.630;23.382;2022-09-09T06:35:56;7.10;;;5.97;;
12774;SDS011;6451;42.630;23.382;2022-09-09T06:38:23;8.40;;;6.00;;
12774;SDS011;6451;42.630;23.382;2022-09-09T06:40:52;7.40;;;5.60;;
12774;SDS011;6451;42.630;23.382;2022-09-09T06:43:20;7.13;;;5.63;;
12774;SDS011;6451;42.630;23.382;2022-09-09T06:45:54;7.72;;;5.80;;
12774;SDS011;6451;42.630;23.382;2022-09-09T06:48:22;7.55;;;5.82;;
12774;SDS011;6451;42.630;23.382;2022-09-09T06:50:59;6.35;;;5.43;;
12774;SDS011;6451;42.630;23.382;2022-09-09T06:53:28;9.07;;;6.45;;
12774;SDS011;6451;42.630;23.382;2022-09-09T06:55:57;10.45;;;7.00;;
12774;SDS011;6451;42.630;23.382;2022-09-09T06:58:25;8.77;;;6.38;;
12774;SDS011;6451;42.630;23.382;2022-09-09T07:00:52;6.85;;;5.90;;
12774;SDS011;6451;42.630;23.382;2022-09-09T07:03:19;8.23;;;6.00;;
12774;SDS011;6451;42.630;23.382;2022-09-09T07:05:53;6.50;;;5.90;;
12774;SDS011;6451;42.630;23.382;2022-09-09T07:08:21;10.13;;;6.32;;
12774;SDS011;6451;42.630;23.382;2022-09-09T07:10:48;11.57;;;6.28;;
12774;SDS011;6451;42.630;23.382;2022-09-09T07:13:18;10.85;;;6.70;;
12774;SDS011;6451;42.630;23.382;2022-09-09T07:15:46;7.93;;;6.70;;
12774;SDS011;6451;42.630;23.382;2022-09-09T07:18:13;11.93;;;6.80;;
12774;SDS011;6451;42.630;23.382;2022-09-09T07:20:40;8.82;;;6.57;;
12774;SDS011;6451;42.630;23.382;2022-09-09T07:23:07;8.07;;;6.80;;
12774;SDS011;6451;42.630;23.382;2022-09-09T07:25:34;8.77;;;6.45;;
12774;SDS011;6451;42.630;23.382;2022-09-09T07:28:01;8.00;;;5.78;;
12774;SDS011;6451;42.630;23.382;2022-09-09T07:30:30;10.23;;;6.13;;
12774;SDS011;6451;42.630;23.382;2022-09-09T07:32:57;10.00;;;5.70;;
12774;SDS011;6451;42.630;23.382;2022-09-09T07:35:26;8.68;;;6.35;;
12774;SDS011;6451;42.630;23.382;2022-09-09T07:37:53;9.27;;;6.28;;
12774;SDS011;6451;42.630;23.382;2022-09-09T07:40:20;14.63;;;6.72;;
12774;SDS011;6451;42.630;23.382;2022-09-09T07:42:47;11.38;;;6.75;;
12774;SDS011;6451;42.630;23.382;2022-09-09T07:45:14;11.60;;;6.40;;
12774;SDS011;6451;42.630;23.382;2022-09-09T07:47:44;10.00;;;5.45;;
12774;SDS011;6451;42.630;23.382;2022-09-09T07:50:11;8.02;;;5.55;;
12774;SDS011;6451;42.630;23.382;2022-09-09T07:52:39;11.02;;;6.38;;
12774;SDS011;6451;42.630;23.382;2022-09-09T07:55:06;11.20;;;6.15;;
12774;SDS011;6451;42.630;23.382;2022-09-09T07:57:34;6.68;;;5.97;;
12774;SDS011;6451;42.630;23.382;2022-09-09T08:00:02;8.77;;;6.40;;
12774;SDS011;6451;42.630;23.382;2022-09-09T08:02:29;9.80;;;6.45;;
12774;SDS011;6451;42.630;23.382;2022-09-09T08:04:58;8.23;;;6.20;;
12774;SDS011;6451;42.630;23.382;2022-09-09T08:07:24;7.75;;;5.78;;
12774;SDS011;6451;42.630;23.382;2022-09-09T08:09:52;11.27;;;6.10;;
12774;SDS011;6451;42.630;23.382;2022-09-09T08:12:19;10.82;;;6.18;;
12774;SDS011;6451;42.630;23.382;2022-09-09T08:14:47;9.85;;;6.10;;
12774;SDS011;6451;42.630;23.382;2022-09-09T08:17:14;12.32;;;6.07;;
12774;SDS011;6451;42.630;23.382;2022-09-09T08:19:41;8.52;;;5.35;;
12774;SDS011;6451;42.630;23.382;2022-09-09T08:22:11;8.98;;;5.80;;
12774;SDS011;6451;42.630;23.382;2022-09-09T08:24:37;8.75;;;5.85;;
12774;SDS011;6451;42.630;23.382;2022-09-09T08:27:04;13.05;;;11.38;;
12774;SDS011;6451;42.630;23.382;2022-09-09T08:29:32;12.23;;;6.28;;
12774;SDS011;6451;42.630;23.382;2022-09-09T08:31:59;8.65;;;5.32;;
12774;SDS011;6451;42.630;23.382;2022-09-09T08:34:27;8.90;;;5.57;;
12774;SDS011;6451;42.630;23.382;2022-09-09T08:36:55;10.05;;;5.07;;
12774;SDS011;6451;42.630;23.382;2022-09-09T08:39:23;11.57;;;5.45;;
12774;SDS011;6451;42.630;23.382;2022-09-09T08:41:59;16.52;;;5.30;;
12774;SDS011;6451;42.630;23.382;2022-09-09T08:44:48;8.43;;;4.68;;
12774;SDS011;6451;42.630;23.382;2022-09-09T08:47:21;7.63;;;5.28;;
12774;SDS011;6451;42.630;23.382;2022-09-09T08:50:05;8.00;;;5.82;;
12774;SDS011;6451;42.630;23.382;2022-09-09T08:52:44;9.90;;;5.20;;
12774;SDS011;6451;42.630;23.382;2022-09-09T08:55:22;12.88;;;5.57;;
12774;SDS011;6451;42.630;23.382;2022-09-09T08:57:54;11.98;;;5.60;;
12774;SDS011;6451;42.630;23.382;2022-09-09T09:00:27;6.03;;;5.30;;
12774;SDS011;6451;42.630;23.382;2022-09-09T09:03:03;9.95;;;5.43;;
12774;SDS011;6451;42.630;23.382;2022-09-09T09:05:41;8.07;;;5.55;;
12774;SDS011;6451;42.630;23.382;2022-09-09T09:08:16;7.88;;;5.60;;
12774;SDS011;6451;42.630;23.382;2022-09-09T09:10:49;6.70;;;4.90;;
12774;SDS011;6451;42.630;23.382;2022-09-09T09:13:19;6.15;;;4.97;;
12774;SDS011;6451;42.630;23.382;2022-09-09T09:15:48;11.57;;;5.75;;
12774;SDS011;6451;42.630;23.382;2022-09-09T09:18:18;8.57;;;5.22;;
12774;SDS011;6451;42.630;23.382;2022-09-09T09:20:49;7.95;;;5.10;;
12774;SDS011;6451;42.630;23.382;2022-09-09T09:23:21;5.97;;;5.10;;
12774;SDS011;6451;42.630;23.382;2022-09-09T09:25:52;8.07;;;5.53;;
12774;SDS011;6451;42.630;23.382;2022-09-09T09:28:26;7.45;;;5.00;;
12774;SDS011;6451;42.630;23.382;2022-09-09T09:30:58;7.22;;;5.18;;
12774;SDS011;6451;42.630;23.382;2022-09-09T09:33:31;7.80;;;5.20;;
12774;SDS011;6451;42.630;23.382;2022-09-09T09:36:02;10.77;;;5.10;;
12774;SDS011;6451;42.630;23.382;2022-09-09T09:38:33;9.07;;;5.30;;
12774;SDS011;6451;42.630;23.382;2022-09-09T09:41:03;9.10;;;5.07;;
12774;SDS011;6451;42.630;23.382;2022-09-09T09:43:31;6.80;;;5.43;;
12774;SDS011;6451;42.630;23.382;2022-09-09T09:45:59;6.32;;;4.88;;
12774;SDS011;6451;42.630;23.382;2022-09-09T09:48:29;9.32;;;5.20;;
12774;SDS011;6451;42.630;23.382;2022-09-09T09:50:58;10.98;;;5.60;;
12774;SDS011;6451;42.630;23.382;2022-09-09T09:53:31;10.60;;;5.50;;
12774;SDS011;6451;42.630;23.382;2022-09-09T09:56:00;9.75;;;5.15;;
12774;SDS011;6451;42.630;23.382;2022-09-09T09:58:32;10.48;;;5.50;;
12774;SDS011;6451;42.630;23.382;2022-09-09T10:01:04;7.82;;;5.10;;
12774;SDS011;6451;42.630;23.382;2022-09-09T10:03:31;7.72;;;5.25;;
12774;SDS011;6451;42.630;23.382;2022-09-09T10:06:03;8.93;;;5.47;;
12774;SDS011;6451;42.630;23.382;2022-09-09T10:08:32;9.88;;;5.40;;
12774;SDS011;6451;42.630;23.382;2022-09-09T10:11:25;7.60;;;5.60;;
12774;SDS011;6451;42.630;23.382;2022-09-09T10:14:04;13.60;;;5.80;;
12774;SDS011;6451;42.630;23.382;2022-09-09T10:16:46;13.18;;;6.13;;
12774;SDS011;6451;42.630;23.382;2022-09-09T10:19:27;7.65;;;5.45;;
12774;SDS011;6451;42.630;23.382;2022-09-09T10:22:13;9.40;;;5.55;;
12774;SDS011;6451;42.630;23.382;2022-09-09T10:24:56;11.05;;;5.72;;
12774;SDS011;6451;42.630;23.382;2022-09-09T10:27:47;9.15;;;6.07;;
12774;SDS011;6451;42.630;23.382;2022-09-09T10:30:26;9.60;;;5.57;;
12774;SDS011;6451;42.630;23.382;2022-09-09T10:33:02;6.40;;;5.38;;
12774;SDS011;6451;42.630;23.382;2022-09-09T10:35:35;7.93;;;5.70;;
12774;SDS011;6451;42.630;23.382;2022-09-09T10:38:14;10.32;;;5.88;;
12774;SDS011;6451;42.630;23.382;2022-09-09T10:40:46;7.35;;;5.88;;
12774;SDS011;6451;42.630;23.382;2022-09-09T10:43:33;9.93;;;6.00;;
12774;SDS011;6451;42.630;23.382;2022-09-09T10:46:14;11.45;;;5.75;;
12774;SDS011;6451;42.630;23.382;2022-09-09T10:49:05;7.97;;;5.95;;
12774;SDS011;6451;42.630;23.382;2022-09-09T10:51:45;9.98;;;7.82;;
12774;SDS011;6451;42.630;23.382;2022-09-09T10:54:22;11.23;;;6.72;;
12774;SDS011;6451;42.630;23.382;2022-09-09T10:56:57;9.25;;;6.15;;
12774;SDS011;6451;42.630;23.382;2022-09-09T10:59:31;10.75;;;5.97;;
12774;SDS011;6451;42.630;23.382;2022-09-09T11:02:03;11.35;;;6.10;;
12774;SDS011;6451;42.630;23.382;2022-09-09T11:04:41;13.07;;;5.97;;
12774;SDS011;6451;42.630;23.382;2022-09-09T11:07:12;10.77;;;6.13;;
12774;SDS011;6451;42.630;23.382;2022-09-09T11:09:50;11.02;;;6.50;;
12774;SDS011;6451;42.630;23.382;2022-09-09T11:12:22;8.10;;;6.00;;
12774;SDS011;6451;42.630;23.382;2022-09-09T11:14:53;12.52;;;5.82;;
12774;SDS011;6451;42.630;23.382;2022-09-09T11:17:26;9.13;;;6.25;;
12774;SDS011;6451;42.630;23.382;2022-09-09T11:20:02;7.78;;;5.93;;
12774;SDS011;6451;42.630;23.382;2022-09-09T11:22:32;8.88;;;5.88;;
12774;SDS011;6451;42.630;23.382;2022-09-09T11:25:05;11.43;;;5.75;;
12774;SDS011;6451;42.630;23.382;2022-09-09T11:27:37;9.43;;;5.85;;
12774;SDS011;6451;42.630;23.382;2022-09-09T11:30:17;7.82;;;6.10;;
12774;SDS011;6451;42.630;23.382;2022-09-09T11:32:54;11.85;;;6.43;;
12774;SDS011;6451;42.630;23.382;2022-09-09T11:35:33;10.68;;;5.82;;
12774;SDS011;6451;42.630;23.382;2022-09-09T11:38:15;10.93;;;6.32;;
12774;SDS011;6451;42.630;23.382;2022-09-09T11:40:45;8.32;;;6.35;;
12774;SDS011;6451;42.630;23.382;2022-09-09T11:43:13;12.98;;;6.70;;
12774;SDS011;6451;42.630;23.382;2022-09-09T11:45:49;10.93;;;6.50;;
12774;SDS011;6451;42.630;23.382;2022-09-09T11:48:25;9.45;;;6.13;;
12774;SDS011;6451;42.630;23.382;2022-09-09T11:50:59;12.20;;;6.88;;
12774;SDS011;6451;42.630;23.382;2022-09-09T11:53:30;9.13;;;6.22;;
12774;SDS011;6451;42.630;23.382;2022-09-09T11:58:55;8.65;;;6.47;;
12774;SDS011;6451;42.630;23.382;2022-09-09T12:01:36;9.27;;;6.60;;
12774;SDS011;6451;42.630;23.382;2022-09-09T12:04:06;8.18;;;6.32;;
12774;SDS011;6451;42.630;23.382;2022-09-09T12:06:54;12.20;;;7.32;;
12774;SDS011;6451;42.630;23.382;2022-09-09T12:09:28;12.20;;;6.80;;
12774;SDS011;6451;42.630;23.382;2022-09-09T12:14:55;11.40;;;6.03;;
12774;SDS011;6451;42.630;23.382;2022-09-09T12:17:44;9.18;;;6.20;;
12774;SDS011;6451;42.630;23.382;2022-09-09T12:20:14;10.18;;;7.38;;
12774;SDS011;6451;42.630;23.382;2022-09-09T12:22:53;11.65;;;6.55;;
12774;SDS011;6451;42.630;23.382;2022-09-09T12:25:30;8.52;;;6.25;;
12774;SDS011;6451;42.630;23.382;2022-09-09T12:28:15;15.35;;;6.55;;
12774;SDS011;6451;42.630;23.382;2022-09-09T12:30:47;12.35;;;6.38;;
12774;SDS011;6451;42.630;23.382;2022-09-09T12:33:23;6.70;;;6.10;;
12774;SDS011;6451;42.630;23.382;2022-09-09T12:35:53;9.25;;;6.30;;
12774;SDS011;6451;42.630;23.382;2022-09-09T12:38:27;11.38;;;7.10;;
12774;SDS011;6451;42.630;23.382;2022-09-09T12:41:00;14.23;;;6.90;;
12774;SDS011;6451;42.630;23.382;2022-09-09T12:43:28;12.35;;;6.57;;
12774;SDS011;6451;42.630;23.382;2022-09-09T12:45:56;11.02;;;6.32;;
12774;SDS011;6451;42.630;23.382;2022-09-09T12:48:31;9.70;;;6.45;;
12774;SDS011;6451;42.630;23.382;2022-09-09T12:51:01;11.27;;;6.30;;
12774;SDS011;6451;42.630;23.382;2022-09-09T12:53:31;11.05;;;6.40;;
12774;SDS011;6451;42.630;23.382;2022-09-09T12:56:02;12.48;;;6.85;;
12774;SDS011;6451;42.630;23.382;2022-09-09T12:58:32;10.88;;;6.32;;
12774;SDS011;6451;42.630;23.382;2022-09-09T13:01:00;13.88;;;6.90;;
12774;SDS011;6451;42.630;23.382;2022-09-09T13:03:32;10.68;;;6.85;;
12774;SDS011;6451;42.630;23.382;2022-09-09T13:06:10;13.80;;;6.80;;
12774;SDS011;6451;42.630;23.382;2022-09-09T13:08:39;9.75;;;6.93;;
12774;SDS011;6451;42.630;23.382;2022-09-09T13:11:07;12.90;;;6.78;;
12774;SDS011;6451;42.630;23.382;2022-09-09T13:13:41;9.77;;;6.43;;
12774;SDS011;6451;42.630;23.382;2022-09-09T13:16:18;12.15;;;6.80;;
12774;SDS011;6451;42.630;23.382;2022-09-09T13:18:49;14.20;;;7.15;;
12774;SDS011;6451;42.630;23.382;2022-09-09T13:21:17;10.52;;;6.78;;
12774;SDS011;6451;42.630;23.382;2022-09-09T13:23:48;10.15;;;6.72;;
12774;SDS011;6451;42.630;23.382;2022-09-09T13:26:21;17.55;;;8.07;;
12774;SDS011;6451;42.630;23.382;2022-09-09T13:28:49;12.10;;;7.03;;
12774;SDS011;6451;42.630;23.382;2022-09-09T13:31:22;15.48;;;7.20;;
12774;SDS011;6451;42.630;23.382;2022-09-09T13:33:55;14.18;;;7.35;;
12774;SDS011;6451;42.630;23.382;2022-09-09T13:36:31;12.05;;;7.28;;
12774;SDS011;6451;42.630;23.382;2022-09-09T13:39:01;17.92;;;7.65;;
12774;SDS011;6451;42.630;23.382;2022-09-09T13:41:30;11.52;;;6.93;;
12774;SDS011;6451;42.630;23.382;2022-09-09T13:43:59;16.27;;;6.57;;
12774;SDS011;6451;42.630;23.382;2022-09-09T13:46:32;14.43;;;6.85;;
12774;SDS011;6451;42.630;23.382;2022-09-09T13:49:02;11.40;;;6.50;;
12774;SDS011;6451;42.630;23.382;2022-09-09T13:51:46;14.75;;;6.78;;
12774;SDS011;6451;42.630;23.382;2022-09-09T13:54:16;12.65;;;6.82;;
12774;SDS011;6451;42.630;23.382;2022-09-09T13:56:44;15.63;;;6.60;;
12774;SDS011;6451;42.630;23.382;2022-09-09T13:59:13;11.40;;;6.40;;
12774;SDS011;6451;42.630;23.382;2022-09-09T14:01:41;12.02;;;6.50;;
12774;SDS011;6451;42.630;23.382;2022-09-09T14:04:10;10.48;;;6.85;;
12774;SDS011;6451;42.630;23.382;2022-09-09T14:06:37;16.40;;;11.27;;
12774;SDS011;6451;42.630;23.382;2022-09-09T14:09:05;14.05;;;11.07;;
12774;SDS011;6451;42.630;23.382;2022-09-09T14:11:33;12.30;;;6.70;;
12774;SDS011;6451;42.630;23.382;2022-09-09T14:14:00;11.02;;;6.15;;
12774;SDS011;6451;42.630;23.382;2022-09-09T14:16:27;13.18;;;7.22;;
12774;SDS011;6451;42.630;23.382;2022-09-09T14:18:55;13.52;;;6.55;;
12774;SDS011;6451;42.630;23.382;2022-09-09T14:21:23;10.23;;;6.13;;
12774;SDS011;6451;42.630;23.382;2022-09-09T14:23:52;16.38;;;6.63;;
12774;SDS011;6451;42.630;23.382;2022-09-09T14:26:19;14.55;;;6.88;;
12774;SDS011;6451;42.630;23.382;2022-09-09T14:28:47;15.25;;;6.72;;
12774;SDS011;6451;42.630;23.382;2022-09-09T14:31:15;13.25;;;7.10;;
12774;SDS011;6451;42.630;23.382;2022-09-09T14:33:43;13.32;;;6.75;;
12774;SDS011;6451;42.630;23.382;2022-09-09T14:36:11;12.15;;;6.40;;
12774;SDS011;6451;42.630;23.382;2022-09-09T14:38:39;14.48;;;6.50;;
12774;SDS011;6451;42.630;23.382;2022-09-09T14:41:07;7.90;;;6.25;;
12774;SDS011;6451;42.630;23.382;2022-09-09T14:43:37;11.93;;;6.13;;
12774;SDS011;6451;42.630;23.382;2022-09-09T14:46:04;10.57;;;6.55;;
12774;SDS011;6451;42.630;23.382;2022-09-09T14:48:32;9.85;;;6.45;;
12774;SDS011;6451;42.630;23.382;2022-09-09T14:51:10;11.65;;;6.30;;
12774;SDS011;6451;42.630;23.382;2022-09-09T14:53:41;12.65;;;6.80;;
12774;SDS011;6451;42.630;23.382;2022-09-09T14:56:09;9.90;;;6.57;;
12774;SDS011;6451;42.630;23.382;2022-09-09T14:58:37;9.43;;;6.95;;
12774;SDS011;6451;42.630;23.382;2022-09-09T15:01:05;11.25;;;6.40;;
12774;SDS011;6451;42.630;23.382;2022-09-09T15:03:32;12.30;;;6.70;;
12774;SDS011;6451;42.630;23.382;2022-09-09T15:06:04;10.55;;;6.93;;
12774;SDS011;6451;42.630;23.382;2022-09-09T15:08:33;16.92;;;7.40;;